Time;durP1;ratioP1;P1;durP2;ratioP2;P2;SDS_P1;SDS_P2;PMS_P1;PMS_P2;Temp;Humidity;BMP_temperature;BMP_pressure;BME280_temperature;BME280_humidity;BME280_pressure;Samples;Min_cycle;Max_cycle;Signal;HPM_P1;HPM_P2
2021/08/16 00:00:49;;;;;;;;;;;;;;;30.41;41.30;99840.84;4315389;33;34478;-86
2021/08/16 00:03:17;;;;;;;;;;;;;;;30.09;42.40;99847.97;4303511;33;35352;-86
2021/08/16 00:05:44;;;;;;;;;;;;;;;30.00;45.75;99849.88;4315333;33;34091;-85
2021/08/16 00:08:12;;;;;;;;;;;;;;;30.39;44.32;99842.88;4303177;33;32648;-86
2021/08/16 00:10:40;;;;;;;;;;;;;;;29.99;44.78;99835.59;4315376;33;34511;-86
2021/08/16 00:13:08;;;;;;;;;;;;;;;30.66;43.10;99838.91;4315218;33;34333;-86
2021/08/16 00:15:36;;;;;;;;;;;;;;;30.25;44.67;99839.03;4315412;33;34252;-86
2021/08/16 00:18:04;;;;;;;;;;;;;;;29.90;45.04;99841.16;4317425;33;33971;-86
2021/08/16 00:20:31;;;;;;;;;;;;;;;29.48;45.70;99826.94;4315544;33;35800;-86
2021/08/16 00:22:59;;;;;;;;;;;;;;;28.80;47.45;99818.13;4315189;33;33259;-86
2021/08/16 00:25:27;;;;;;;;;;;;;;;29.31;48.87;99816.16;4315042;33;34619;-86
2021/08/16 00:27:54;;;;;;;;;;;;;;;28.96;49.47;99818.13;4315126;33;34727;-85
2021/08/16 00:30:23;;;;;;;;;;;;;;;29.48;48.11;99805.44;4314902;33;34579;-86
2021/08/16 00:32:51;;;;;;;;;;;;;;;27.96;52.54;99801.78;4302745;33;35938;-86
2021/08/16 00:35:19;;;;;;;;;;;;;;;29.22;49.36;99790.31;4314674;33;35097;-87
2021/08/16 00:37:46;;;;;;;;;;;;;;;29.50;48.42;99787.31;4302589;33;35319;-86
2021/08/16 00:40:15;;;;;;;;;;;;;;;29.32;49.00;99785.66;4309035;33;34095;-86
2021/08/16 00:42:43;;;;;;;;;;;;;;;27.81;52.39;99783.66;4309541;33;34260;-86
2021/08/16 00:45:11;;;;;;;;;;;;;;;27.96;52.47;99778.56;4309159;33;34346;-86
2021/08/16 00:47:39;;;;;;;;;;;;;;;28.31;51.16;99784.75;4303853;33;34005;-86
2021/08/16 00:50:07;;;;;;;;;;;;;;;28.49;50.84;99773.09;4316796;33;34717;-86
2021/08/16 00:52:34;;;;;;;;;;;;;;;27.79;52.50;99769.59;4316184;33;33924;-86
2021/08/16 00:55:04;;;;;;;;;;;;;;;27.75;52.64;99770.06;4304559;33;34343;-87
2021/08/16 00:57:31;;;;;;;;;;;;;;;28.52;50.76;99767.41;4304837;33;33639;-85
2021/08/16 01:00:01;;;;;;;;;;;;;;;28.86;49.08;99754.94;4316627;33;34869;-86
2021/08/16 01:02:32;;;;;;;;;;;;;;;28.62;50.29;99754.69;4316704;33;35184;-86
2021/08/16 01:05:02;;;;;;;;;;;;;;;28.59;50.66;99749.69;4304372;33;35555;-85
2021/08/16 01:07:31;;;;;;;;;;;;;;;29.46;48.29;99740.38;4304693;33;32637;-85
2021/08/16 01:09:59;;;;;;;;;;;;;;;30.13;47.15;99744.56;4317093;33;34037;-86
2021/08/16 01:12:33;;;;;;;;;;;;;;;30.45;46.00;99740.03;4305126;33;34415;-86
2021/08/16 01:15:01;;;;;;;;;;;;;;;29.76;48.02;99737.97;4304287;33;34439;-85
2021/08/16 01:17:30;;;;;;;;;;;;;;;29.50;48.69;99736.31;4305091;33;33771;-85
2021/08/16 01:19:57;;;;;;;;;;;;;;;29.46;48.16;99735.00;4305186;33;34376;-86
2021/08/16 01:22:26;;;;;;;;;;;;;;;29.26;48.91;99737.22;4304311;33;34898;-86
2021/08/16 01:24:53;;;;;;;;;;;;;;;29.07;50.06;99733.00;4304750;33;34974;-87
2021/08/16 01:27:21;;;;;;;;;;;;;;;28.09;52.22;99735.28;4316567;33;33828;-86
2021/08/16 01:29:48;;;;;;;;;;;;;;;28.45;51.16;99737.75;4316364;33;35837;-85
2021/08/16 01:32:15;;;;;;;;;;;;;;;28.58;50.27;99739.94;4304143;33;35345;-85
2021/08/16 01:34:43;;;;;;;;;;;;;;;29.14;48.24;99721.44;4316136;33;35170;-85
2021/08/16 01:37:10;;;;;;;;;;;;;;;28.36;50.65;99717.31;4303783;33;32997;-86
2021/08/16 01:39:38;;;;;;;;;;;;;;;27.86;51.95;99724.28;4314256;33;34254;-85
2021/08/16 01:42:05;;;;;;;;;;;;;;;27.75;52.22;99705.81;4313855;33;35407;-86
2021/08/16 01:44:33;;;;;;;;;;;;;;;29.18;48.50;99705.81;4303678;33;33257;-86
2021/08/16 01:47:00;;;;;;;;;;;;;;;29.22;48.15;99704.47;4304052;33;33916;-85
2021/08/16 01:49:27;;;;;;;;;;;;;;;28.45;50.04;99712.78;4304413;33;33625;-86
2021/08/16 01:51:55;;;;;;;;;;;;;;;27.95;51.09;99711.78;4304441;33;35390;-86
2021/08/16 01:54:23;;;;;;;;;;;;;;;28.31;50.54;99712.44;4316243;33;33350;-85
2021/08/16 01:56:50;;;;;;;;;;;;;;;28.36;50.08;99713.78;4303844;33;34147;-86
2021/08/16 01:59:18;;;;;;;;;;;;;;;28.69;49.56;99713.88;4303703;33;35610;-87
2021/08/16 02:01:45;;;;;;;;;;;;;;;28.46;50.03;99717.16;4316569;33;34310;-86
2021/08/16 02:04:13;;;;;;;;;;;;;;;29.07;48.05;99717.75;4304163;33;33496;-86
2021/08/16 02:06:41;;;;;;;;;;;;;;;28.55;49.41;99729.56;4304036;33;33089;-86
2021/08/16 02:09:08;;;;;;;;;;;;;;;28.53;49.28;99725.38;4315781;33;33604;-85
2021/08/16 02:11:36;;;;;;;;;;;;;;;28.96;48.77;99718.09;4316323;33;33960;-86
2021/08/16 02:14:03;;;;;;;;;;;;;;;28.57;49.30;99721.38;4317270;33;33859;-86
2021/08/16 02:16:31;;;;;;;;;;;;;;;28.16;50.57;99728.28;4303941;33;32564;-86
2021/08/16 02:18:58;;;;;;;;;;;;;;;29.32;47.24;99723.94;4303885;33;35482;-86
2021/08/16 02:21:26;;;;;;;;;;;;;;;28.90;48.22;99729.47;4303985;33;33650;-86
2021/08/16 02:23:54;;;;;;;;;;;;;;;29.49;46.73;99724.75;4303335;33;34822;-87
2021/08/16 02:26:23;;;;;;;;;;;;;;;29.24;47.25;99723.94;4316012;33;35092;-86
2021/08/16 02:28:51;;;;;;;;;;;;;;;29.10;47.56;99720.06;4315685;33;35263;-86
2021/08/16 02:31:23;;;;;;;;;;;;;;;29.07;47.49;99711.56;4316015;33;34576;-85
2021/08/16 02:33:51;;;;;;;;;;;;;;;29.26;46.48;99713.06;4303378;33;34949;-85
2021/08/16 02:36:19;;;;;;;;;;;;;;;28.70;48.04;99707.53;4316034;33;34676;-86
2021/08/16 02:38:46;;;;;;;;;;;;;;;29.11;46.78;99708.34;4303602;33;35067;-85
2021/08/16 02:41:14;;;;;;;;;;;;;;;28.49;48.18;99714.13;4299800;33;35284;-87
2021/08/16 02:43:42;;;;;;;;;;;;;;;28.51;48.19;99706.78;4302512;33;34518;-86
2021/08/16 02:46:11;;;;;;;;;;;;;;;28.60;47.47;99704.94;4314152;33;34265;-85
2021/08/16 02:48:39;;;;;;;;;;;;;;;28.14;48.67;99706.19;4304299;33;35453;-86
2021/08/16 02:51:06;;;;;;;;;;;;;;;27.56;50.43;99697.06;4315935;33;34756;-86
2021/08/16 02:53:33;;;;;;;;;;;;;;;27.60;50.24;99703.75;4303396;33;34620;-85
2021/08/16 02:56:01;;;;;;;;;;;;;;;28.06;48.88;99703.47;4303599;33;35103;-86
2021/08/16 02:58:28;;;;;;;;;;;;;;;28.33;48.14;99702.41;4315516;33;34605;-85
2021/08/16 03:00:56;;;;;;;;;;;;;;;27.62;50.07;99700.91;4315242;33;35193;-85
2021/08/16 03:03:24;;;;;;;;;;;;;;;28.25;48.31;99691.62;4316891;33;34172;-86
2021/08/16 03:05:51;;;;;;;;;;;;;;;27.59;49.54;99693.19;4315516;33;33491;-86
2021/08/16 03:08:18;;;;;;;;;;;;;;;27.88;48.99;99690.19;4315389;33;33783;-86
2021/08/16 03:10:53;;;;;;;;;;;;;;;27.92;48.66;99688.84;4315617;33;33903;-87
2021/08/16 03:13:21;;;;;;;;;;;;;;;28.59;47.13;99690.72;4303247;33;35166;-86
2021/08/16 03:15:49;;;;;;;;;;;;;;;27.86;48.51;99689.47;4315468;33;33878;-86
2021/08/16 03:18:17;;;;;;;;;;;;;;;28.33;47.92;99680.13;4315281;33;34112;-85
2021/08/16 03:20:44;;;;;;;;;;;;;;;29.11;45.88;99686.88;4303449;33;35518;-86
2021/08/16 03:23:12;;;;;;;;;;;;;;;28.83;46.64;99676.50;4315218;33;35308;-86
2021/08/16 03:25:39;;;;;;;;;;;;;;;28.75;46.80;99678.38;4315572;33;35084;-85
2021/08/16 03:28:07;;;;;;;;;;;;;;;28.81;46.23;99681.22;4303035;33;35676;-86
2021/08/16 03:30:34;;;;;;;;;;;;;;;28.96;46.46;99676.00;4315557;33;35927;-86
2021/08/16 03:33:02;;;;;;;;;;;;;;;29.37;45.18;99677.84;4303639;33;35748;-85
2021/08/16 03:35:29;;;;;;;;;;;;;;;28.79;46.03;99685.06;4315412;33;33512;-86
2021/08/16 03:37:57;;;;;;;;;;;;;;;28.23;47.27;99685.62;4315134;33;34968;-87
2021/08/16 03:40:25;;;;;;;;;;;;;;;27.90;48.41;99696.19;4301911;33;33173;-85
2021/08/16 03:42:52;;;;;;;;;;;;;;;27.41;50.25;99699.44;4315228;33;34281;-85
2021/08/16 03:45:20;;;;;;;;;;;;;;;27.81;49.29;99699.84;4303356;33;32426;-86
2021/08/16 03:47:48;;;;;;;;;;;;;;;27.65;48.74;99701.41;4303255;33;33206;-87
2021/08/16 03:50:17;;;;;;;;;;;;;;;27.84;48.46;99696.81;4303036;33;35638;-85
2021/08/16 03:52:44;;;;;;;;;;;;;;;27.74;48.69;99698.81;4314809;33;35972;-86
2021/08/16 03:55:12;;;;;;;;;;;;;;;27.32;49.59;99700.34;4302867;33;33701;-86
2021/08/16 03:57:39;;;;;;;;;;;;;;;27.03;50.50;99701.50;4315127;32;34481;-86
2021/08/16 04:00:07;;;;;;;;;;;;;;;27.30;50.04;99692.50;4303434;33;35541;-86
2021/08/16 04:02:41;;;;;;;;;;;;;;;27.59;49.42;99687.84;4302743;33;35350;-87
2021/08/16 04:05:10;;;;;;;;;;;;;;;27.37;50.35;99694.56;4315137;33;34899;-85
2021/08/16 04:07:37;;;;;;;;;;;;;;;27.53;49.67;99683.16;4302712;33;33104;-86
2021/08/16 04:10:10;;;;;;;;;;;;;;;27.85;48.87;99687.81;4315117;33;34879;-86
2021/08/16 04:12:37;;;;;;;;;;;;;;;26.92;51.52;99691.88;4302968;33;34208;-85
2021/08/16 04:15:09;;;;;;;;;;;;;;;27.03;51.38;99689.97;4314838;33;33545;-85
2021/08/16 04:17:37;;;;;;;;;;;;;;;27.86;49.07;99684.12;4314936;33;34642;-85
2021/08/16 04:20:05;;;;;;;;;;;;;;;26.76;51.77;99684.56;4302285;33;35156;-86
2021/08/16 04:22:32;;;;;;;;;;;;;;;26.93;51.62;99685.53;4314882;33;35096;-86
2021/08/16 04:25:03;;;;;;;;;;;;;;;26.89;51.75;99686.03;4303104;33;33670;-86
2021/08/16 04:27:30;;;;;;;;;;;;;;;28.12;48.25;99677.88;4302334;33;33363;-85
2021/08/16 04:29:58;;;;;;;;;;;;;;;28.75;46.46;99687.25;4303152;33;33412;-86
2021/08/16 04:32:26;;;;;;;;;;;;;;;28.90;46.37;99695.44;4303117;33;33118;-86
2021/08/16 04:34:53;;;;;;;;;;;;;;;28.78;46.46;99694.94;4303063;33;32314;-87
2021/08/16 04:37:21;;;;;;;;;;;;;;;28.95;46.09;99703.81;4302224;33;34795;-85
2021/08/16 04:39:49;;;;;;;;;;;;;;;29.10;45.74;99706.66;4312265;33;34678;-86
2021/08/16 04:42:17;;;;;;;;;;;;;;;28.83;46.07;99708.69;4300896;33;33792;-85
2021/08/16 04:44:45;;;;;;;;;;;;;;;28.77;46.37;99717.41;4315068;33;33706;-86
2021/08/16 04:47:13;;;;;;;;;;;;;;;28.76;46.76;99722.91;4302972;33;34136;-85
2021/08/16 04:49:40;;;;;;;;;;;;;;;28.90;46.15;99718.75;4314675;33;35565;-86
2021/08/16 04:52:07;;;;;;;;;;;;;;;28.68;46.42;99721.09;4303102;33;35832;-86
2021/08/16 04:54:35;;;;;;;;;;;;;;;28.42;46.78;99721.16;4314448;33;34244;-86
2021/08/16 04:57:03;;;;;;;;;;;;;;;28.69;46.30;99724.59;4302691;33;34627;-85
2021/08/16 04:59:30;;;;;;;;;;;;;;;28.79;45.66;99731.47;4315639;33;33590;-84
2021/08/16 05:01:58;;;;;;;;;;;;;;;28.78;46.17;99737.00;4317243;33;34230;-86
2021/08/16 05:04:25;;;;;;;;;;;;;;;28.61;46.38;99730.75;4303650;33;33295;-86
2021/08/16 05:06:53;;;;;;;;;;;;;;;28.49;46.52;99731.06;4315917;33;34231;-85
2021/08/16 05:09:20;;;;;;;;;;;;;;;28.71;46.24;99733.31;4316348;33;35031;-85
2021/08/16 05:11:49;;;;;;;;;;;;;;;28.81;46.13;99728.63;4315564;33;35530;-85
2021/08/16 05:14:16;;;;;;;;;;;;;;;28.80;46.01;99735.00;4315575;33;33522;-86
2021/08/16 05:16:44;;;;;;;;;;;;;;;28.85;46.09;99737.19;4315692;33;34742;-85
2021/08/16 05:19:12;;;;;;;;;;;;;;;28.87;46.28;99736.00;4316245;33;34984;-86
2021/08/16 05:21:42;;;;;;;;;;;;;;;29.51;44.66;99735.31;4315608;33;34953;-85
2021/08/16 05:24:10;;;;;;;;;;;;;;;29.40;45.00;99733.00;4316974;33;33033;-85
2021/08/16 05:26:37;;;;;;;;;;;;;;;29.45;44.99;99730.62;4315731;33;34279;-86
2021/08/16 05:29:05;;;;;;;;;;;;;;;29.61;44.41;99735.13;4316521;33;34279;-83
2021/08/16 05:31:33;;;;;;;;;;;;;;;29.74;44.46;99750.69;4315736;33;34641;-85
2021/08/16 05:34:01;;;;;;;;;;;;;;;29.65;44.94;99749.91;4336442;33;33121;-85
2021/08/16 05:36:28;;;;;;;;;;;;;;;29.40;45.87;99743.75;4349371;33;34576;-85
2021/08/16 05:38:56;;;;;;;;;;;;;;;29.77;44.95;99747.66;4347346;33;34527;-84
2021/08/16 05:41:24;;;;;;;;;;;;;;;29.38;46.00;99745.75;4321687;33;33302;-85
2021/08/16 05:43:51;;;;;;;;;;;;;;;29.32;46.48;99748.09;4349725;33;34148;-85
2021/08/16 05:46:19;;;;;;;;;;;;;;;28.65;48.45;99749.06;4323105;33;33542;-84
2021/08/16 05:48:47;;;;;;;;;;;;;;;29.35;46.84;99751.47;4347533;33;34346;-85
2021/08/16 05:51:14;;;;;;;;;;;;;;;29.18;47.15;99751.44;4322459;33;34658;-85
2021/08/16 05:53:42;;;;;;;;;;;;;;;29.86;45.54;99754.72;4347900;33;33540;-84
2021/08/16 05:56:09;;;;;;;;;;;;;;;30.11;44.98;99755.47;4346769;33;34985;-83
2021/08/16 05:58:36;;;;;;;;;;;;;;;30.32;44.94;99762.94;4346161;33;34393;-85
2021/08/16 06:01:04;;;;;;;;;;;;;;;30.12;45.31;99759.00;4321501;33;35892;-84
2021/08/16 06:03:38;;;;;;;;;;;;;;;30.34;44.91;99760.06;4321700;33;34114;-82
2021/08/16 06:06:05;;;;;;;;;;;;;;;30.21;45.16;99766.03;4333529;33;34988;-83
2021/08/16 06:08:33;;;;;;;;;;;;;;;29.98;46.11;99764.09;4333889;33;34396;-83
2021/08/16 06:11:03;;;;;;;;;;;;;;;30.45;44.91;99765.09;4321234;33;33589;-83
2021/08/16 06:13:30;;;;;;;;;;;;;;;30.12;45.84;99775.94;4334024;33;33428;-83
2021/08/16 06:15:58;;;;;;;;;;;;;;;30.60;44.64;99770.53;4334052;33;34864;-83
2021/08/16 06:18:26;;;;;;;;;;;;;;;30.71;44.32;99774.66;4333726;33;33962;-83
2021/08/16 06:20:54;;;;;;;;;;;;;;;30.93;43.74;99770.31;4322018;33;34904;-83
2021/08/16 06:23:22;;;;;;;;;;;;;;;31.09;43.16;99769.38;4346043;33;34622;-83
2021/08/16 06:25:50;;;;;;;;;;;;;;;30.89;43.48;99774.38;4319853;33;33100;-83
2021/08/16 06:28:19;;;;;;;;;;;;;;;30.95;43.44;99776.38;4307243;33;34884;-84
2021/08/16 06:30:46;;;;;;;;;;;;;;;31.46;42.08;99783.88;4319495;33;35171;-84
2021/08/16 06:33:14;;;;;;;;;;;;;;;31.16;42.90;99782.97;4307605;33;33650;-84
2021/08/16 06:35:42;;;;;;;;;;;;;;;31.15;42.64;99783.97;4295612;33;33222;-82
2021/08/16 06:38:21;;;;;;;;;;;;;;;31.37;42.13;99776.88;4319342;33;35186;-83
2021/08/16 06:40:55;;;;;;;;;;;;;;;31.37;42.22;99786.84;4320705;33;35088;-83
2021/08/16 06:43:24;;;;;;;;;;;;;;;31.80;40.64;99777.19;4319520;33;32441;-84
2021/08/16 06:45:55;;;;;;;;;;;;;;;31.83;41.00;99775.97;4319911;33;34322;-84
2021/08/16 06:48:26;;;;;;;;;;;;;;;32.29;39.48;99766.84;4308055;33;35194;-84
2021/08/16 06:50:53;;;;;;;;;;;;;;;32.25;39.40;99766.38;4307823;33;34963;-84
2021/08/16 06:53:21;;;;;;;;;;;;;;;32.44;38.58;99764.09;4307740;33;32473;-85
2021/08/16 06:55:50;;;;;;;;;;;;;;;31.94;39.43;99759.31;4333488;33;34219;-83
2021/08/16 06:58:20;;;;;;;;;;;;;;;32.54;38.66;99753.84;4318893;33;33620;-86
2021/08/16 07:00:50;;;;;;;;;;;;;;;32.80;38.01;99747.94;4309009;33;34263;-85
2021/08/16 07:03:27;;;;;;;;;;;;;;;32.61;38.10;99760.16;4321830;33;33907;-83
2021/08/16 07:05:59;;;;;;;;;;;;;;;32.57;38.21;99753.47;4308799;33;34272;-85
2021/08/16 07:08:27;;;;;;;;;;;;;;;32.59;37.78;99751.44;4320655;33;32962;-85
2021/08/16 07:10:55;;;;;;;;;;;;;;;32.60;36.81;99761.19;4308289;33;32907;-84
2021/08/16 07:13:23;;;;;;;;;;;;;;;33.10;35.90;99757.75;4319926;33;32869;-85
2021/08/16 07:15:52;;;;;;;;;;;;;;;33.29;35.43;99757.13;4313961;33;33737;-86
2021/08/16 07:18:20;;;;;;;;;;;;;;;33.17;35.94;99749.72;4317456;33;34175;-85
2021/08/16 07:20:48;;;;;;;;;;;;;;;33.50;35.57;99749.16;4328880;33;33463;-85
2021/08/16 07:23:16;;;;;;;;;;;;;;;33.16;36.81;99759.69;4316948;33;33255;-85
2021/08/16 07:25:44;;;;;;;;;;;;;;;33.11;36.50;99764.81;4319918;33;33254;-85
2021/08/16 07:28:11;;;;;;;;;;;;;;;33.46;35.99;99767.63;4332456;33;34298;-85
2021/08/16 07:30:40;;;;;;;;;;;;;;;33.50;35.77;99778.88;4316154;32;33998;-87
2021/08/16 07:33:09;;;;;;;;;;;;;;;33.26;36.09;99781.78;4329797;33;34097;-85
2021/08/16 07:35:37;;;;;;;;;;;;;;;32.79;36.53;99773.25;4320108;33;33349;-85
2021/08/16 07:38:05;;;;;;;;;;;;;;;33.44;35.30;99767.81;4307979;33;33673;-85
2021/08/16 07:40:33;;;;;;;;;;;;;;;33.09;35.86;99769.56;4315017;32;33213;-86
2021/08/16 07:43:01;;;;;;;;;;;;;;;33.38;35.04;99765.88;4312893;33;32870;-85
2021/08/16 07:45:29;;;;;;;;;;;;;;;33.90;34.19;99766.47;4332023;33;36194;-85
2021/08/16 07:47:59;;;;;;;;;;;;;;;33.49;35.03;99761.81;4332058;33;33670;-85
2021/08/16 07:50:28;;;;;;;;;;;;;;;33.41;34.97;99761.97;4304600;33;34357;-85
2021/08/16 07:52:58;;;;;;;;;;;;;;;34.13;33.81;99755.34;4330567;33;33167;-85
2021/08/16 07:55:26;;;;;;;;;;;;;;;34.18;33.51;99756.63;4306499;33;33590;-85
2021/08/16 07:57:53;;;;;;;;;;;;;;;34.38;32.55;99760.25;4319943;33;32749;-85
2021/08/16 08:00:24;;;;;;;;;;;;;;;33.65;33.61;99765.25;4256638;33;1699512;-86
2021/08/16 08:02:59;;;;;;;;;;;;;;;34.22;32.50;99766.81;4304662;33;32809;-86
2021/08/16 08:05:30;;;;;;;;;;;;;;;34.31;32.58;99772.06;4332189;33;34851;-86
2021/08/16 08:08:00;;;;;;;;;;;;;;;34.45;31.73;99773.78;4319891;33;33202;-85
2021/08/16 08:10:27;;;;;;;;;;;;;;;34.38;31.76;99772.94;4316390;33;34562;-86
2021/08/16 08:12:58;;;;;;;;;;;;;;;34.55;32.07;99768.00;4304451;33;32498;-85
2021/08/16 08:15:27;;;;;;;;;;;;;;;34.81;31.93;99774.50;4308052;33;34439;-87
2021/08/16 08:17:54;;;;;;;;;;;;;;;35.03;31.42;99776.03;4319784;33;33597;-86
2021/08/16 08:20:23;;;;;;;;;;;;;;;35.06;30.86;99777.47;4316570;33;34620;-87
2021/08/16 08:22:55;;;;;;;;;;;;;;;35.08;30.97;99773.53;4302862;33;32945;-83
2021/08/16 08:25:25;;;;;;;;;;;;;;;34.56;31.74;99780.50;4307012;33;33228;-85
2021/08/16 08:27:52;;;;;;;;;;;;;;;34.60;31.57;99770.94;4306957;33;34378;-86
2021/08/16 08:30:31;;;;;;;;;;;;;;;34.51;31.94;99783.81;4302387;33;33096;-86
2021/08/16 08:32:59;;;;;;;;;;;;;;;34.52;31.88;99776.53;4312246;33;34287;-85
2021/08/16 08:35:27;;;;;;;;;;;;;;;34.82;31.63;99774.28;4332719;33;34248;-85
2021/08/16 08:37:54;;;;;;;;;;;;;;;35.19;30.79;99768.53;4331721;33;34031;-85
2021/08/16 08:40:24;;;;;;;;;;;;;;;35.36;30.32;99768.97;4316245;32;33428;-85
2021/08/16 08:42:52;;;;;;;;;;;;;;;35.39;29.95;99773.97;4300382;33;33328;-85
2021/08/16 08:45:21;;;;;;;;;;;;;;;35.20;30.54;99767.50;4319561;33;34216;-85
2021/08/16 08:47:49;;;;;;;;;;;;;;;35.90;29.16;99754.31;4319539;33;34513;-83
2021/08/16 08:50:17;;;;;;;;;;;;;;;35.75;28.73;99762.66;4318265;33;34107;-85
2021/08/16 08:52:45;;;;;;;;;;;;;;;35.81;28.96;99755.56;4314777;33;34836;-85
2021/08/16 08:55:14;;;;;;;;;;;;;;;34.93;30.70;99759.38;4307836;33;34382;-85
2021/08/16 08:58:14;;;;;;;;;;;;;;;35.32;30.16;99754.16;4331933;33;34276;-87
2021/08/16 09:01:10;;;;;;;;;;;;;;;35.91;29.49;99752.44;4296003;33;34660;-86
2021/08/16 09:03:51;;;;;;;;;;;;;;;36.35;28.78;99750.81;4328734;33;34397;-85
2021/08/16 09:06:28;;;;;;;;;;;;;;;36.55;28.68;99752.56;4319573;33;34556;-86
2021/08/16 09:08:57;;;;;;;;;;;;;;;36.80;28.94;99752.62;4334084;33;34605;-86
2021/08/16 09:11:27;;;;;;;;;;;;;;;36.78;29.28;99752.03;4316225;33;33372;-86
2021/08/16 09:14:04;;;;;;;;;;;;;;;36.63;29.45;99751.47;4307688;33;32870;-86
2021/08/16 09:16:47;;;;;;;;;;;;;;;36.65;29.23;99746.69;4309348;33;34095;-86
2021/08/16 09:19:41;;;;;;;;;;;;;;;35.50;29.87;99742.69;4310053;33;35372;-87
2021/08/16 09:22:37;;;;;;;;;;;;;;;35.70;30.21;99745.38;4315682;33;34831;-85
2021/08/16 09:25:24;;;;;;;;;;;;;;;35.38;31.56;99747.94;4311943;33;33193;-87
2021/08/16 09:28:16;;;;;;;;;;;;;;;35.91;30.87;99742.44;4311769;33;33348;-88
2021/08/16 09:30:57;;;;;;;;;;;;;;;36.29;29.65;99732.66;4315319;33;33955;-85
2021/08/16 09:34:22;;;;;;;;;;;;;;;36.07;29.78;99737.56;4317731;33;34062;-86
2021/08/16 09:40:27;;;;;;;;;;;;;;;36.24;29.94;99717.03;4328051;32;35083;-85
2021/08/16 09:43:28;;;;;;;;;;;;;;;36.60;29.25;99728.34;4307245;33;35293;-85
2021/08/16 09:45:56;;;;;;;;;;;;;;;36.98;29.32;99715.75;4320797;33;33380;-86
2021/08/16 09:48:24;;;;;;;;;;;;;;;37.22;28.70;99708.66;4320591;33;32291;-86
2021/08/16 09:50:55;;;;;;;;;;;;;;;37.00;28.65;99706.34;4315598;33;34116;-87
2021/08/16 09:53:26;;;;;;;;;;;;;;;37.33;28.45;99707.12;4303347;33;34683;-86
2021/08/16 10:03:20;;;;;;;;;;;;;;;36.75;29.21;99703.59;4316351;33;33739;-88
2021/08/16 10:06:50;;;;;;;;;;;;;;;37.28;28.41;99696.87;4331632;33;35134;-88
2021/08/16 10:13:02;;;;;;;;;;;;;;;36.28;30.20;99693.84;4338861;33;34119;-87
2021/08/16 10:15:39;;;;;;;;;;;;;;;35.83;31.63;99682.16;4334030;33;35713;-89
2021/08/16 10:18:48;;;;;;;;;;;;;;;36.73;29.44;99678.56;4286813;33;35823;-88
2021/08/16 10:21:35;;;;;;;;;;;;;;;36.59;29.58;99678.69;4282339;33;33632;-86
2021/08/16 10:24:33;;;;;;;;;;;;;;;36.92;28.87;99683.03;4272226;33;34396;-87
2021/08/16 10:27:52;;;;;;;;;;;;;;;36.77;28.98;99671.66;4252253;33;33095;-88
2021/08/16 10:31:40;;;;;;;;;;;;;;;37.31;28.18;99663.91;4230208;33;35314;-88
2021/08/16 10:35:25;;;;;;;;;;;;;;;36.51;28.85;99665.37;4155784;34;34190;-86
2021/08/16 10:38:51;;;;;;;;;;;;;;;37.08;27.84;99659.91;4232560;33;35060;-88
2021/08/16 10:42:09;;;;;;;;;;;;;;;36.95;28.08;99654.62;4250998;33;33457;-85
2021/08/16 10:44:43;;;;;;;;;;;;;;;37.75;26.87;99642.06;4244912;33;34690;-85
2021/08/16 10:47:22;;;;;;;;;;;;;;;37.12;27.70;99643.16;4244630;33;33531;-85
2021/08/16 10:50:03;;;;;;;;;;;;;;;37.40;27.31;99645.41;4260474;33;34286;-86
2021/08/16 10:52:43;;;;;;;;;;;;;;;37.45;27.19;99644.72;4249645;33;33456;-85
2021/08/16 10:55:31;;;;;;;;;;;;;;;38.34;25.91;99647.75;4245916;33;34334;-87
2021/08/16 10:58:09;;;;;;;;;;;;;;;37.58;27.27;99634.53;4276569;33;34674;-87
2021/08/16 11:27:10;;;;;;;;;;;;;;;38.71;25.28;99601.34;4162547;34;33849;-86
2021/08/16 11:30:58;;;;;;;;;;;;;;;39.31;24.67;99598.59;4161164;34;33438;-87
2021/08/16 11:33:40;;;;;;;;;;;;;;;39.64;24.25;99602.53;4159682;34;33178;-86
2021/08/16 11:43:08;;;;;;;;;;;;;;;40.17;22.90;99597.81;4138159;34;34706;-86
2021/08/16 11:46:18;;;;;;;;;;;;;;;;;;;;;
2021/08/16 12:12:29;;;;;;;;;;;;;;;40.49;22.01;99581.72;4169565;34;34625;-87
2021/08/16 12:23:00;;;;;;;;;;;;;;;40.96;21.34;99563.31;4154187;34;34359;-87
2021/08/16 12:30:02;;;;;;;;;;;;;;;40.81;21.42;99562.00;4107834;34;34728;-86
2021/08/16 12:33:08;;;;;;;;;;;;;;;40.89;21.12;99564.28;4157683;34;34980;-86
2021/08/16 12:56:07;;;;;;;;;;;;;;;41.02;20.71;99535.81;5213634;27;35067;-86
2021/08/16 13:15:54;;;;;;;;;;;;;;;41.24;20.81;99508.47;4453640;32;803457;-84
2021/08/16 13:18:39;;;;;;;;;;;;;;;41.52;20.46;99500.31;4469776;31;799728;-84
2021/08/16 13:21:34;;;;;;;;;;;;;;;41.32;20.57;99498.19;4467790;31;846200;-85
2021/08/16 13:24:24;;;;;;;;;;;;;;;40.45;21.46;99497.84;4475016;31;905103;-85
2021/08/16 13:27:18;;;;;;;;;;;;;;;41.22;20.24;99496.16;4471039;32;812167;-85
2021/08/16 13:34:16;;;;;;;;;;;;;;;40.89;20.55;99470.62;4501093;31;802800;-86
2021/08/16 13:37:13;;;;;;;;;;;;;;;40.97;20.70;99470.19;4472175;31;761062;-85
2021/08/16 13:50:22;;;;;;;;;;;;;;;41.95;20.29;99463.00;5245432;27;1050787;-88
2021/08/16 13:53:16;;;;;;;;;;;;;;;41.54;20.64;99451.69;4501661;31;772488;-85
2021/08/16 13:56:10;;;;;;;;;;;;;;;41.26;21.46;99450.84;4496910;31;1430351;-86
2021/08/16 13:58:53;;;;;;;;;;;;;;;41.96;20.32;99445.47;4068706;31;13286697;-86
2021/08/16 14:01:39;;;;;;;;;;;;;;;42.05;20.16;99454.84;4519097;31;752378;-84
2021/08/16 14:04:19;;;;;;;;;;;;;;;41.19;21.09;99451.06;4409573;32;781996;-84
2021/08/16 14:07:12;;;;;;;;;;;;;;;41.11;21.63;99448.75;4472145;31;735335;-87
2021/08/16 14:09:52;;;;;;;;;;;;;;;41.10;21.36;99444.41;4519131;31;744974;-84
2021/08/16 14:12:33;;;;;;;;;;;;;;;40.54;21.58;99439.03;4466887;32;898070;-86
2021/08/16 14:15:18;;;;;;;;;;;;;;;40.59;21.48;99446.47;4440509;32;783680;-85
2021/08/16 14:17:59;;;;;;;;;;;;;;;40.11;22.35;99444.16;4454749;32;793345;-86
2021/08/16 14:20:42;;;;;;;;;;;;;;;40.55;21.77;99441.50;4454177;32;821245;-85
2021/08/16 14:23:24;;;;;;;;;;;;;;;40.61;21.73;99428.78;4468297;31;807686;-84
2021/08/16 14:26:06;;;;;;;;;;;;;;;40.64;22.02;99433.72;4469817;32;816888;-86
2021/08/16 14:28:46;;;;;;;;;;;;;;;40.51;21.59;99434.91;4468425;32;813631;-84
2021/08/16 14:31:31;;;;;;;;;;;;;;;39.98;22.09;99433.56;4470980;31;804975;-84
2021/08/16 14:34:13;;;;;;;;;;;;;;;39.54;22.88;99428.72;4456100;32;785414;-84
2021/08/16 14:36:53;;;;;;;;;;;;;;;40.50;21.39;99421.50;4456819;32;777342;-86
2021/08/16 14:39:36;;;;;;;;;;;;;;;40.12;21.89;99421.25;4487476;31;784808;-84
2021/08/16 14:42:17;;;;;;;;;;;;;;;39.76;22.19;99415.22;4456599;32;784347;-84
2021/08/16 14:44:57;;;;;;;;;;;;;;;40.09;21.73;99419.03;4470878;32;796783;-85
2021/08/16 14:47:41;;;;;;;;;;;;;;;40.32;21.45;99414.44;4468222;32;885597;-85
2021/08/16 14:50:34;;;;;;;;;;;;;;;40.95;21.15;99403.25;4500211;31;804082;-85
2021/08/16 14:53:16;;;;;;;;;;;;;;;40.70;21.32;99401.84;4469756;31;781299;-85
2021/08/16 14:56:00;;;;;;;;;;;;;;;40.67;21.30;99397.72;4468517;31;810698;-85
2021/08/16 14:58:40;;;;;;;;;;;;;;;41.78;19.85;99394.75;4468747;31;806543;-84
2021/08/16 15:01:21;;;;;;;;;;;;;;;41.41;20.22;99395.53;4453870;32;806073;-85
2021/08/16 15:04:02;;;;;;;;;;;;;;;40.78;20.75;99392.38;4469695;31;820136;-85
2021/08/16 15:06:44;;;;;;;;;;;;;;;41.11;20.83;99390.56;4484320;31;811817;-85
2021/08/16 15:09:25;;;;;;;;;;;;;;;40.90;20.89;99388.44;4471317;31;789826;-86
2021/08/16 15:22:33;;;;;;;;;;;;;;;41.26;20.98;99377.06;4453467;32;852342;-87
2021/08/16 15:25:16;;;;;;;;;;;;;;;40.66;21.92;99368.78;4440599;32;850636;-86
2021/08/16 15:27:57;;;;;;;;;;;;;;;40.48;22.06;99371.81;4454751;32;784480;-84
2021/08/16 15:30:40;;;;;;;;;;;;;;;40.59;21.92;99364.59;4440448;32;780867;-86
2021/08/16 15:33:21;;;;;;;;;;;;;;;39.96;23.06;99364.81;4470281;32;811509;-85
2021/08/16 15:36:01;;;;;;;;;;;;;;;40.19;23.33;99355.59;4470241;32;825129;-84
2021/08/16 15:38:45;;;;;;;;;;;;;;;39.99;23.59;99358.84;4469737;31;831828;-87
2021/08/16 15:41:26;;;;;;;;;;;;;;;39.92;23.99;99348.94;4418345;32;1987794;-85
2021/08/16 15:44:06;;;;;;;;;;;;;;;40.49;23.36;99338.78;4470252;31;840901;-85
2021/08/16 15:46:47;;;;;;;;;;;;;;;39.68;24.46;99328.41;4470325;32;826715;-85